This is the latest recevied weather packets stored in our database for station/object JA3QOS-13. If no packets are shown the sender has not sent any weather packets the latest 10 day(s).
| Time | Temp. | Humidity | Pressure | Rain* | Wind** | Luminosity | Snow |
|---|---|---|---|---|---|---|---|
| 1787533204 | 28.33° C | 86% | 1016.6 hPa | 0 mm | - | - | - |
| 1787531404 | 28.33° C | 88% | 1016.4 hPa | 0 mm | - | - | - |
| 1787529607 | 26.67° C | 94% | 1016.4 hPa | 0 mm | - | - | - |
| 1787527804 | 25.56° C | 96% | 1016.3 hPa | 0 mm | - | - | - |
| 1787526003 | 24.44° C | 99% | 1016.4 hPa | 0 mm | - | - | - |
| 1787524203 | 23.89° C | 99% | 1016.5 hPa | 0 mm | - | - | - |
| 1787522403 | 23.33° C | 99% | 1016.2 hPa | 0 mm | - | - | - |
| 1787520604 | 23.33° C | 99% | 1016.4 hPa | 0 mm | - | - | - |
| 1787518803 | 23.33° C | 99% | 1016.4 hPa | 0 mm | - | - | - |
| 1787517003 | 23.33° C | 99% | 1016.3 hPa | 0 mm | - | - | - |
| 1787515205 | 22.78° C | 99% | 1016 hPa | 0 mm | - | - | - |
| 1787513403 | 23.33° C | 99% | 1016.1 hPa | 0 mm | - | - | - |
| 1787511603 | 23.33° C | 99% | 1016.3 hPa | 0 mm | - | - | - |
| 1787509803 | 23.33° C | 99% | 1016.2 hPa | 0 mm | - | - | - |
| 1787508003 | 22.78° C | 99% | 1016.1 hPa | 0 mm | - | - | - |
| 1787506204 | 22.78° C | 99% | 1016.2 hPa | 0 mm | - | - | - |
| 1787504404 | 23.33° C | 99% | 1016.5 hPa | 0 mm | - | - | - |
| 1787502604 | 22.78° C | 99% | 1016.5 hPa | 0 mm | - | - | - |
| 1787500803 | 23.33° C | 99% | 1016.3 hPa | 0 mm | - | - | - |
| 1787499004 | 23.33° C | 97% | 1016.6 hPa | 0 mm | - | - | - |
| 1787497204 | 23.89° C | 96% | 1016.7 hPa | 0 mm | - | - | - |
| 1787495404 | 24.44° C | 93% | 1016.9 hPa | 0 mm | - | - | - |
| 1787493604 | 23.33° C | 99% | 1016.9 hPa | 0 mm | - | - | - |
| 1787491804 | 23.89° C | 98% | 1016.9 hPa | 0 mm | - | - | - |
| 1787490003 | 23.89° C | 98% | 1017 hPa | 0 mm | - | - | - |
* Rain latest hour (hover to see other rain measurements)
** Current wind speed in m/s (hover to see current wind gust speed)